Time;durP1;ratioP1;P1;durP2;ratioP2;P2;SDS_P1;SDS_P2;PMS_P1;PMS_P2;Temp;Humidity;BMP_temperature;BMP_pressure;BME280_temperature;BME280_humidity;BME280_pressure;Samples;Min_cycle;Max_cycle;Signal;HPM_P1;HPM_P2
2021/12/09 00:00:32;;;;;;;56.73;23.60;;;;;;;;;;5054135;28;20526;-71
2021/12/09 00:03:05;;;;;;;48.53;21.97;;;;;;;;;;5053950;28;20456;-71
2021/12/09 00:05:33;;;;;;;53.10;24.67;;;;;;;;;;5054181;28;20449;-71
2021/12/09 00:08:00;;;;;;;46.07;22.37;;;;;;;;;;5053796;28;21044;-71
2021/12/09 00:10:28;;;;;;;43.27;21.90;;;;;;;;;;5054065;28;20443;-71
2021/12/09 00:12:56;;;;;;;57.57;24.87;;;;;;;;;;5053719;28;20452;-71
2021/12/09 00:15:23;;;;;;;50.03;23.73;;;;;;;;;;5053989;28;20954;-71
2021/12/09 00:17:51;;;;;;;50.00;25.03;;;;;;;;;;5053847;28;20460;-71
2021/12/09 00:20:19;;;;;;;47.30;22.83;;;;;;;;;;5053767;28;20440;-71
2021/12/09 00:22:46;;;;;;;46.43;22.80;;;;;;;;;;5053683;28;20503;-71
2021/12/09 00:25:14;;;;;;;50.03;24.20;;;;;;;;;;5053537;28;20546;-71
2021/12/09 00:27:41;;;;;;;61.07;23.30;;;;;;;;;;5053488;28;20868;-71
2021/12/09 00:30:09;;;;;;;59.43;26.50;;;;;;;;;;5053456;28;20453;-71
2021/12/09 00:32:36;;;;;;;57.53;25.93;;;;;;;;;;5053562;28;20444;-71
2021/12/09 00:35:05;;;;;;;50.00;23.60;;;;;;;;;;5053314;28;20818;-71
2021/12/09 00:37:37;;;;;;;45.97;22.07;;;;;;;;;;5053115;28;20465;-71
2021/12/09 00:40:05;;;;;;;52.77;23.60;;;;;;;;;;5053260;28;20510;-71
2021/12/09 00:42:33;;;;;;;53.97;22.83;;;;;;;;;;5053371;28;20460;-71
2021/12/09 00:45:00;;;;;;;50.97;24.20;;;;;;;;;;5053101;28;20840;-71
2021/12/09 00:47:27;;;;;;;54.60;21.77;;;;;;;;;;5053270;28;20452;-71
2021/12/09 00:49:55;;;;;;;44.20;21.30;;;;;;;;;;5053263;28;20953;-71
2021/12/09 00:52:24;;;;;;;48.70;21.37;;;;;;;;;;5053384;28;20974;-71
2021/12/09 00:54:52;;;;;;;56.00;25.30;;;;;;;;;;5052401;28;20452;-71
2021/12/09 00:57:20;;;;;;;52.30;24.00;;;;;;;;;;5052974;28;20455;-71
2021/12/09 00:59:48;;;;;;;53.03;24.13;;;;;;;;;;5053260;28;20485;-71
2021/12/09 01:02:15;;;;;;;55.93;22.87;;;;;;;;;;5053120;28;20452;-71
2021/12/09 01:04:43;;;;;;;57.20;24.23;;;;;;;;;;5053095;28;20487;-71
2021/12/09 01:07:11;;;;;;;50.30;24.60;;;;;;;;;;5052886;28;20452;-71
2021/12/09 01:09:39;;;;;;;55.67;25.10;;;;;;;;;;5053104;28;20978;-71
2021/12/09 01:12:07;;;;;;;63.63;24.67;;;;;;;;;;5052910;28;20452;-71
2021/12/09 01:14:36;;;;;;;46.90;23.47;;;;;;;;;;5052889;28;20868;-71
2021/12/09 01:17:04;;;;;;;52.57;23.17;;;;;;;;;;5052631;28;20452;-72
2021/12/09 01:19:31;;;;;;;59.03;25.80;;;;;;;;;;5052936;28;20883;-71
2021/12/09 01:21:58;;;;;;;58.67;25.33;;;;;;;;;;5052815;28;20452;-71
2021/12/09 01:24:25;;;;;;;64.77;27.57;;;;;;;;;;5052753;28;20484;-71
2021/12/09 01:26:56;;;;;;;53.53;24.73;;;;;;;;;;5052688;28;20468;-71
2021/12/09 01:29:32;;;;;;;50.07;23.93;;;;;;;;;;5052867;28;21025;-72
2021/12/09 01:32:02;;;;;;;56.27;24.77;;;;;;;;;;5052806;28;20828;-71
2021/12/09 01:34:29;;;;;;;57.37;26.80;;;;;;;;;;5053084;28;20817;-71
2021/12/09 01:36:57;;;;;;;56.70;26.40;;;;;;;;;;5052339;28;20472;-72
2021/12/09 01:39:27;;;;;;;60.57;25.37;;;;;;;;;;5052736;28;20453;-71
2021/12/09 01:41:55;;;;;;;50.53;25.20;;;;;;;;;;5052783;28;20821;-71
2021/12/09 01:44:22;;;;;;;57.63;26.27;;;;;;;;;;5052741;28;20485;-71
2021/12/09 01:46:50;;;;;;;57.97;27.00;;;;;;;;;;5052440;28;20507;-72
2021/12/09 01:49:17;;;;;;;56.73;24.50;;;;;;;;;;5052720;28;20507;-72
2021/12/09 01:51:48;;;;;;;57.43;23.73;;;;;;;;;;5052600;28;20449;-72
2021/12/09 01:54:16;;;;;;;66.60;26.57;;;;;;;;;;5052769;28;20451;-72
2021/12/09 01:56:43;;;;;;;53.70;26.70;;;;;;;;;;5052499;28;20459;-72
2021/12/09 01:59:12;;;;;;;54.30;25.40;;;;;;;;;;5052639;28;20480;-71
2021/12/09 02:01:40;;;;;;;61.57;26.37;;;;;;;;;;5052481;28;20449;-71
2021/12/09 02:04:08;;;;;;;59.40;28.50;;;;;;;;;;5052532;28;20492;-71
2021/12/09 02:06:40;;;;;;;49.07;23.90;;;;;;;;;;5054548;28;20448;-71
2021/12/09 02:09:07;;;;;;;53.93;24.60;;;;;;;;;;5056068;28;20452;-71
2021/12/09 02:11:34;;;;;;;64.00;25.00;;;;;;;;;;5056231;28;20949;-71
2021/12/09 02:14:01;;;;;;;56.00;26.10;;;;;;;;;;5056164;28;20455;-71
2021/12/09 02:16:30;;;;;;;57.33;23.60;;;;;;;;;;5056284;28;20444;-71
2021/12/09 02:18:57;;;;;;;58.17;25.80;;;;;;;;;;5055858;28;20451;-71
2021/12/09 02:21:26;;;;;;;50.47;24.53;;;;;;;;;;5056221;28;20956;-71
2021/12/09 02:23:55;;;;;;;51.07;24.10;;;;;;;;;;5055823;28;20456;-71
2021/12/09 02:26:23;;;;;;;55.67;24.70;;;;;;;;;;5055829;28;20455;-71
2021/12/09 02:28:51;;;;;;;49.23;24.67;;;;;;;;;;5055685;28;20456;-71
2021/12/09 02:31:18;;;;;;;63.63;25.77;;;;;;;;;;5055787;28;20475;-71
2021/12/09 02:33:45;;;;;;;53.70;25.03;;;;;;;;;;5056113;28;20460;-71
2021/12/09 02:36:12;;;;;;;57.57;25.03;;;;;;;;;;5055535;28;20949;-71
2021/12/09 02:38:44;;;;;;;62.30;25.07;;;;;;;;;;5055487;28;20467;-71
2021/12/09 02:41:15;;;;;;;61.30;28.10;;;;;;;;;;5055748;28;20864;-71
2021/12/09 02:43:42;;;;;;;55.40;24.50;;;;;;;;;;5055646;28;20550;-71
2021/12/09 02:46:09;;;;;;;60.17;26.17;;;;;;;;;;5055326;28;21005;-71
2021/12/09 02:48:37;;;;;;;64.50;25.63;;;;;;;;;;5055465;28;20448;-71
2021/12/09 02:51:06;;;;;;;56.10;27.50;;;;;;;;;;5055303;28;20456;-71
2021/12/09 02:53:33;;;;;;;57.00;24.73;;;;;;;;;;5055435;28;20452;-71
2021/12/09 02:56:02;;;;;;;48.13;24.17;;;;;;;;;;5055274;28;20456;-71
2021/12/09 02:58:29;;;;;;;57.43;24.97;;;;;;;;;;5055279;28;20448;-71
2021/12/09 03:00:58;;;;;;;49.23;24.97;;;;;;;;;;5055137;28;20456;-71
2021/12/09 03:03:26;;;;;;;56.60;25.83;;;;;;;;;;5055260;28;20457;-71
2021/12/09 03:05:53;;;;;;;53.80;24.97;;;;;;;;;;5055070;28;20495;-71
2021/12/09 03:08:32;;;;;;;56.97;23.63;;;;;;;;;;5055168;28;20889;-71
2021/12/09 03:10:59;;;;;;;54.10;23.90;;;;;;;;;;5054918;28;20460;-72
2021/12/09 03:13:28;;;;;;;53.37;24.90;;;;;;;;;;5055178;28;20449;-71
2021/12/09 03:15:55;;;;;;;60.43;24.87;;;;;;;;;;5055053;28;20453;-71
2021/12/09 03:18:23;;;;;;;61.60;27.80;;;;;;;;;;5053942;28;20453;-71
2021/12/09 03:20:50;;;;;;;58.23;26.43;;;;;;;;;;5055175;28;20461;-71
2021/12/09 03:23:17;;;;;;;68.00;27.17;;;;;;;;;;5054781;28;20457;-71
2021/12/09 03:25:44;;;;;;;48.70;24.33;;;;;;;;;;5054997;28;20495;-71
2021/12/09 03:28:11;;;;;;;56.13;26.23;;;;;;;;;;5054504;28;20468;-71
2021/12/09 03:30:40;;;;;;;57.43;26.40;;;;;;;;;;5054771;28;20866;-71
2021/12/09 03:33:07;;;;;;;58.53;26.53;;;;;;;;;;5054575;28;20457;-71
2021/12/09 03:35:34;;;;;;;61.87;25.80;;;;;;;;;;5054705;28;20452;-72
2021/12/09 03:38:01;;;;;;;52.03;26.37;;;;;;;;;;5054356;28;20810;-72
2021/12/09 03:40:29;;;;;;;53.90;26.03;;;;;;;;;;5054580;28;20437;-72
2021/12/09 03:42:56;;;;;;;54.50;26.07;;;;;;;;;;5054360;28;20828;-72
2021/12/09 03:45:23;;;;;;;52.27;23.97;;;;;;;;;;5054487;28;20495;-71
2021/12/09 03:47:52;;;;;;;62.03;25.83;;;;;;;;;;5054269;28;20972;-71
2021/12/09 03:50:19;;;;;;;80.67;37.57;;;;;;;;;;5054311;28;20449;-71
2021/12/09 03:52:46;;;;;;;67.83;28.70;;;;;;;;;;5054242;28;20451;-71
2021/12/09 03:55:13;;;;;;;54.77;23.70;;;;;;;;;;5054170;28;20822;-72
2021/12/09 03:57:40;;;;;;;49.80;24.10;;;;;;;;;;5054121;28;20452;-72
2021/12/09 04:00:09;;;;;;;51.97;24.43;;;;;;;;;;5054256;28;21067;-72
2021/12/09 04:02:36;;;;;;;52.67;23.17;;;;;;;;;;5054161;28;20452;-72
2021/12/09 04:05:04;;;;;;;50.53;25.33;;;;;;;;;;5053875;28;21029;-72
2021/12/09 04:07:32;;;;;;;49.83;26.80;;;;;;;;;;5053863;28;20452;-72
2021/12/09 04:09:59;;;;;;;55.33;26.33;;;;;;;;;;5053786;28;20968;-71
2021/12/09 04:12:26;;;;;;;51.07;24.37;;;;;;;;;;5053961;28;20467;-72
2021/12/09 04:14:53;;;;;;;49.37;23.00;;;;;;;;;;5053891;28;20491;-72
2021/12/09 04:17:20;;;;;;;48.63;21.80;;;;;;;;;;5053629;28;20453;-72
2021/12/09 04:19:48;;;;;;;52.47;23.87;;;;;;;;;;5053797;28;20945;-71
2021/12/09 04:22:17;;;;;;;52.80;23.80;;;;;;;;;;5053722;28;20803;-71
2021/12/09 04:24:44;;;;;;;48.47;25.00;;;;;;;;;;5053633;28;20460;-71
2021/12/09 04:27:11;;;;;;;48.83;23.67;;;;;;;;;;5053580;28;20460;-72
2021/12/09 04:29:39;;;;;;;46.40;22.30;;;;;;;;;;5053737;28;20866;-72
2021/12/09 04:32:06;;;;;;;54.93;24.30;;;;;;;;;;5054075;28;20453;-71
2021/12/09 04:34:33;;;;;;;47.60;21.80;;;;;;;;;;5053483;28;20452;-71
2021/12/09 04:37:01;;;;;;;52.23;23.37;;;;;;;;;;5053045;28;20466;-72
2021/12/09 04:39:29;;;;;;;46.63;23.37;;;;;;;;;;5053448;28;20459;-71
2021/12/09 04:41:56;;;;;;;52.03;24.43;;;;;;;;;;5053318;28;20453;-71
2021/12/09 04:44:24;;;;;;;53.17;23.10;;;;;;;;;;5053794;28;20452;-71
2021/12/09 04:46:51;;;;;;;62.43;21.80;;;;;;;;;;5053024;28;20484;-71
2021/12/09 04:49:18;;;;;;;52.13;24.27;;;;;;;;;;5053287;28;20464;-71
2021/12/09 04:51:45;;;;;;;52.63;23.87;;;;;;;;;;5053273;28;20456;-71
2021/12/09 04:54:12;;;;;;;43.93;22.73;;;;;;;;;;5053510;28;20948;-72
2021/12/09 04:56:41;;;;;;;62.63;24.43;;;;;;;;;;5053021;28;20452;-72
2021/12/09 04:59:09;;;;;;;51.83;22.27;;;;;;;;;;5053027;28;20456;-71
2021/12/09 05:01:36;;;;;;;56.13;24.33;;;;;;;;;;5052982;28;20473;-72
2021/12/09 05:04:04;;;;;;;51.17;25.33;;;;;;;;;;5053187;28;20827;-71
2021/12/09 05:06:31;;;;;;;47.00;25.33;;;;;;;;;;5061034;28;20499;-71
2021/12/09 05:09:05;;;;;;;59.70;25.03;;;;;;;;;;5072945;28;20456;-71
2021/12/09 05:11:47;;;;;;;50.67;23.73;;;;;;;;;;5073057;28;20463;-71
2021/12/09 05:14:16;;;;;;;61.00;25.43;;;;;;;;;;5072949;28;20962;-71
2021/12/09 05:16:44;;;;;;;56.90;25.23;;;;;;;;;;5073014;28;20451;-71
2021/12/09 05:19:11;;;;;;;46.77;24.00;;;;;;;;;;5072820;28;20447;-71
2021/12/09 05:21:39;;;;;;;50.87;25.20;;;;;;;;;;5073042;28;20444;-71
2021/12/09 05:24:06;;;;;;;53.83;26.17;;;;;;;;;;5073047;28;20451;-71
2021/12/09 05:26:40;;;;;;;61.03;25.53;;;;;;;;;;5072953;28;20857;-71
2021/12/09 05:29:07;;;;;;;55.60;26.73;;;;;;;;;;5072871;28;20828;-71
2021/12/09 05:34:20;;;;;;;61.57;29.03;;;;;;;;;;5073152;28;20794;-71
2021/12/09 05:36:47;;;;;;;55.17;23.77;;;;;;;;;;5072516;28;20945;-71
2021/12/09 05:39:15;;;;;;;58.33;24.60;;;;;;;;;;5072702;28;20444;-71
2021/12/09 05:41:43;;;;;;;52.73;25.40;;;;;;;;;;5075381;28;20456;-71
2021/12/09 05:44:11;;;;;;;45.37;22.73;;;;;;;;;;5076691;28;20835;-71
2021/12/09 05:46:40;;;;;;;43.27;21.63;;;;;;;;;;5076521;28;20875;-71
2021/12/09 05:49:08;;;;;;;48.40;21.40;;;;;;;;;;5076632;28;20459;-71
2021/12/09 05:51:35;;;;;;;54.00;24.57;;;;;;;;;;5076633;28;20454;-71
2021/12/09 05:54:02;;;;;;;44.33;19.93;;;;;;;;;;5076426;28;20805;-71
2021/12/09 05:56:30;;;;;;;51.33;23.60;;;;;;;;;;5076503;28;20470;-71
2021/12/09 05:58:57;;;;;;;54.40;23.30;;;;;;;;;;5076194;28;20451;-71
2021/12/09 06:01:24;;;;;;;53.77;28.47;;;;;;;;;;5076383;28;20967;-71
2021/12/09 06:03:53;;;;;;;43.20;22.57;;;;;;;;;;5076338;28;20485;-71
2021/12/09 06:06:21;;;;;;;47.13;23.77;;;;;;;;;;5076283;28;20490;-71
2021/12/09 06:08:48;;;;;;;48.80;22.93;;;;;;;;;;5076059;28;20466;-71
2021/12/09 06:11:15;;;;;;;37.20;20.33;;;;;;;;;;5076170;28;20825;-71
2021/12/09 06:13:44;;;;;;;45.60;24.13;;;;;;;;;;5076351;28;20451;-71
2021/12/09 06:16:12;;;;;;;47.97;22.37;;;;;;;;;;5076218;28;20541;-71
2021/12/09 06:18:39;;;;;;;46.83;21.80;;;;;;;;;;5075968;28;20944;-71
2021/12/09 06:21:07;;;;;;;39.40;21.17;;;;;;;;;;5076015;28;20462;-71
2021/12/09 06:23:34;;;;;;;45.50;21.47;;;;;;;;;;5076000;28;20466;-71
2021/12/09 06:26:01;;;;;;;45.20;21.93;;;;;;;;;;5075882;28;20483;-71
2021/12/09 06:28:28;;;;;;;42.47;20.40;;;;;;;;;;5076011;28;20456;-70
2021/12/09 06:30:55;;;;;;;51.83;24.97;;;;;;;;;;5075718;28;20458;-71
2021/12/09 06:33:23;;;;;;;47.97;21.20;;;;;;;;;;5075969;28;20451;-71
2021/12/09 06:35:50;;;;;;;39.40;19.30;;;;;;;;;;5075648;28;20454;-71
2021/12/09 06:38:18;;;;;;;62.50;24.20;;;;;;;;;;5075562;28;20470;-71
2021/12/09 06:40:46;;;;;;;45.83;23.77;;;;;;;;;;5075710;28;20455;-71
2021/12/09 06:43:14;;;;;;;49.80;22.53;;;;;;;;;;5075608;28;20967;-71
2021/12/09 06:45:42;;;;;;;50.60;24.10;;;;;;;;;;5075392;28;20491;-71
2021/12/09 06:48:09;;;;;;;44.23;19.93;;;;;;;;;;5075377;28;20889;-71
2021/12/09 06:50:36;;;;;;;45.23;23.97;;;;;;;;;;5075537;28;20448;-70
2021/12/09 06:53:04;;;;;;;60.20;27.90;;;;;;;;;;5074085;28;20451;-70
2021/12/09 06:55:32;;;;;;;37.83;17.17;;;;;;;;;;5075557;28;20451;-70
2021/12/09 06:57:59;;;;;;;52.93;24.53;;;;;;;;;;5075224;28;20475;-70
2021/12/09 07:00:28;;;;;;;48.43;23.77;;;;;;;;;;5075403;28;20458;-72
2021/12/09 07:02:55;;;;;;;52.33;23.90;;;;;;;;;;5075193;28;20460;-72
2021/12/09 07:05:23;;;;;;;41.23;21.57;;;;;;;;;;5075213;28;20458;-71
2021/12/09 07:07:51;;;;;;;45.43;22.70;;;;;;;;;;5075202;28;20549;-72
2021/12/09 07:10:19;;;;;;;53.20;24.83;;;;;;;;;;5074049;28;20506;-71
2021/12/09 07:12:48;;;;;;;46.80;23.47;;;;;;;;;;5075336;28;20479;-73
2021/12/09 07:15:15;;;;;;;61.43;24.77;;;;;;;;;;5075047;28;20454;-73
2021/12/09 07:17:42;;;;;;;56.63;24.57;;;;;;;;;;5075007;28;20459;-74
2021/12/09 07:20:11;;;;;;;42.87;23.90;;;;;;;;;;5074612;28;20456;-71
2021/12/09 07:22:39;;;;;;;51.73;23.23;;;;;;;;;;5074877;28;20953;-75
2021/12/09 07:25:06;;;;;;;50.43;23.60;;;;;;;;;;5074644;28;20972;-73
2021/12/09 07:27:34;;;;;;;60.30;29.70;;;;;;;;;;5074758;28;20865;-73
2021/12/09 07:30:03;;;;;;;67.50;29.50;;;;;;;;;;5074955;28;20448;-73
2021/12/09 07:32:30;;;;;;;63.90;29.30;;;;;;;;;;5074703;28;20459;-72
2021/12/09 07:34:57;;;;;;;52.70;23.70;;;;;;;;;;5074537;28;20451;-73
2021/12/09 07:37:24;;;;;;;62.97;28.30;;;;;;;;;;5074279;28;20463;-72
2021/12/09 07:39:51;;;;;;;68.67;30.03;;;;;;;;;;5074270;28;20456;-73
2021/12/09 07:42:18;;;;;;;55.07;27.13;;;;;;;;;;5074291;28;20467;-73
2021/12/09 07:44:46;;;;;;;45.03;24.60;;;;;;;;;;5074544;28;20828;-73
2021/12/09 07:47:14;;;;;;;65.20;29.77;;;;;;;;;;5074077;28;20494;-74
2021/12/09 07:49:41;;;;;;;54.67;27.83;;;;;;;;;;5074296;28;20467;-73
2021/12/09 07:52:08;;;;;;;49.43;25.50;;;;;;;;;;5074642;28;20455;-74
2021/12/09 07:54:36;;;;;;;57.30;25.70;;;;;;;;;;5074274;28;20452;-72
2021/12/09 07:57:03;;;;;;;56.00;26.43;;;;;;;;;;5074017;28;20932;-72
2021/12/09 07:59:31;;;;;;;51.97;26.93;;;;;;;;;;5073140;28;20872;-72
2021/12/09 08:01:58;;;;;;;48.30;24.73;;;;;;;;;;5074025;28;20458;-73
2021/12/09 08:04:27;;;;;;;48.70;23.07;;;;;;;;;;5073684;28;20451;-73
2021/12/09 08:06:54;;;;;;;46.90;22.43;;;;;;;;;;5073806;28;20494;-74
2021/12/09 08:09:21;;;;;;;53.83;23.00;;;;;;;;;;5074148;28;20444;-73
2021/12/09 08:11:48;;;;;;;45.50;21.37;;;;;;;;;;5074156;28;20455;-72
2021/12/09 08:14:16;;;;;;;47.00;23.60;;;;;;;;;;5073895;28;20463;-72
2021/12/09 08:16:43;;;;;;;45.20;21.40;;;;;;;;;;5073798;28;20448;-74
2021/12/09 08:19:11;;;;;;;42.30;22.17;;;;;;;;;;5073954;28;20451;-74
2021/12/09 08:21:41;;;;;;;54.30;24.30;;;;;;;;;;5073841;28;20518;-72
2021/12/09 08:24:09;;;;;;;46.53;21.63;;;;;;;;;;5073540;28;20499;-73
2021/12/09 08:26:36;;;;;;;38.67;22.23;;;;;;;;;;5073519;28;20869;-73
2021/12/09 08:29:04;;;;;;;38.30;19.07;;;;;;;;;;5073923;28;20829;-73
2021/12/09 08:31:33;;;;;;;47.03;22.47;;;;;;;;;;5073442;28;20456;-73
2021/12/09 08:34:00;;;;;;;45.97;22.10;;;;;;;;;;5072101;28;20456;-74
2021/12/09 08:36:28;;;;;;;47.17;23.90;;;;;;;;;;5073249;28;20444;-74
2021/12/09 08:38:56;;;;;;;42.27;23.63;;;;;;;;;;5073098;28;20454;-74
2021/12/09 08:41:24;;;;;;;47.13;23.60;;;;;;;;;;5073480;28;20452;-74
2021/12/09 08:43:52;;;;;;;45.70;23.07;;;;;;;;;;5073335;28;20551;-74
2021/12/09 08:46:19;;;;;;;49.63;24.17;;;;;;;;;;5072799;28;20864;-72
2021/12/09 08:48:47;;;;;;;41.43;20.40;;;;;;;;;;5073302;28;20209;-73
2021/12/09 08:51:14;;;;;;;47.40;22.33;;;;;;;;;;5073373;28;20490;-74
2021/12/09 08:53:42;;;;;;;44.67;23.50;;;;;;;;;;5072815;28;20451;-74
2021/12/09 08:56:10;;;;;;;45.60;22.10;;;;;;;;;;5073030;28;20232;-74
2021/12/09 08:58:37;;;;;;;36.77;20.30;;;;;;;;;;5073164;28;20822;-74
2021/12/09 09:01:05;;;;;;;31.50;18.27;;;;;;;;;;5073012;28;20458;-74
2021/12/09 09:03:32;;;;;;;32.47;19.13;;;;;;;;;;5066150;28;21119;-75
2021/12/09 09:06:01;;;;;;;41.87;20.47;;;;;;;;;;5070374;28;20472;-74
2021/12/09 09:08:28;;;;;;;41.37;19.83;;;;;;;;;;5071617;28;20484;-74
2021/12/09 09:10:56;;;;;;;35.60;21.07;;;;;;;;;;5071230;28;20976;-75
2021/12/09 09:13:24;;;;;;;35.83;18.30;;;;;;;;;;5071152;28;20475;-74
2021/12/09 09:15:52;;;;;;;36.93;17.57;;;;;;;;;;5070360;28;20500;-75
2021/12/09 09:18:20;;;;;;;38.03;18.13;;;;;;;;;;5071456;28;20464;-74
2021/12/09 09:20:48;;;;;;;38.63;18.00;;;;;;;;;;5071323;28;20482;-74
2021/12/09 09:23:17;;;;;;;39.60;18.70;;;;;;;;;;5071205;28;20841;-74
2021/12/09 09:25:44;;;;;;;35.40;18.80;;;;;;;;;;5071270;28;20708;-75
2021/12/09 09:28:12;;;;;;;32.03;17.60;;;;;;;;;;5070770;28;21015;-75
2021/12/09 09:30:45;;;;;;;33.70;18.83;;;;;;;;;;5071267;28;20468;-75
2021/12/09 09:33:13;;;;;;;37.30;19.73;;;;;;;;;;5071104;28;20499;-75
2021/12/09 09:35:41;;;;;;;39.33;15.90;;;;;;;;;;5070972;28;20467;-75
2021/12/09 09:38:09;;;;;;;30.30;18.00;;;;;;;;;;5070988;28;21028;-75
2021/12/09 09:40:41;;;;;;;41.50;19.70;;;;;;;;;;5071283;28;20478;-75
2021/12/09 09:43:26;;;;;;;53.30;25.00;;;;;;;;;;5070971;28;20687;-75
2021/12/09 09:45:55;;;;;;;37.47;18.13;;;;;;;;;;5071083;28;20482;-75
2021/12/09 09:48:22;;;;;;;30.27;17.43;;;;;;;;;;5070637;28;20717;-75
2021/12/09 09:50:49;;;;;;;36.30;19.23;;;;;;;;;;5070830;28;20471;-75
2021/12/09 09:53:17;;;;;;;43.27;20.50;;;;;;;;;;5070618;28;20479;-75
2021/12/09 09:55:46;;;;;;;34.70;19.23;;;;;;;;;;5070936;28;20502;-76
2021/12/09 09:58:13;;;;;;;37.10;20.67;;;;;;;;;;5070781;28;20507;-75
2021/12/09 10:00:41;;;;;;;34.87;18.53;;;;;;;;;;5070513;28;20460;-75
2021/12/09 10:03:16;;;;;;;33.67;19.03;;;;;;;;;;5070832;28;20475;-76
2021/12/09 10:05:44;;;;;;;34.70;17.60;;;;;;;;;;5071260;28;20742;-75
2021/12/09 10:08:12;;;;;;;34.40;17.73;;;;;;;;;;5070812;28;20491;-75
2021/12/09 10:10:40;;;;;;;33.00;15.77;;;;;;;;;;5070808;28;20515;-75
2021/12/09 10:13:08;;;;;;;34.93;15.90;;;;;;;;;;5070889;28;20480;-75
2021/12/09 10:15:36;;;;;;;30.83;15.60;;;;;;;;;;5070797;28;21012;-75
2021/12/09 10:18:04;;;;;;;36.27;16.87;;;;;;;;;;5070466;28;20475;-75
2021/12/09 10:20:52;;;;;;;28.77;15.37;;;;;;;;;;5070780;28;20840;-75
2021/12/09 10:23:37;;;;;;;36.93;19.13;;;;;;;;;;5071238;28;20475;-75
2021/12/09 10:26:15;;;;;;;31.00;15.63;;;;;;;;;;5070795;28;20460;-75
2021/12/09 10:28:46;;;;;;;32.97;18.27;;;;;;;;;;5074197;28;20494;-75
2021/12/09 10:31:15;;;;;;;32.60;15.63;;;;;;;;;;5074417;28;20505;-75
2021/12/09 10:33:59;;;;;;;30.63;18.17;;;;;;;;;;5073915;28;20479;-75
2021/12/09 10:36:48;;;;;;;40.03;19.47;;;;;;;;;;5074153;28;20463;-75
2021/12/09 10:39:16;;;;;;;32.00;16.67;;;;;;;;;;5074265;28;20475;-75
2021/12/09 10:41:44;;;;;;;25.07;15.03;;;;;;;;;;5073854;28;20480;-75
2021/12/09 10:44:11;;;;;;;25.73;13.90;;;;;;;;;;5075637;28;20470;-75
2021/12/09 10:46:52;;;;;;;24.07;12.00;;;;;;;;;;5075804;28;20456;-75
2021/12/09 10:49:20;;;;;;;21.60;12.53;;;;;;;;;;5075532;28;20547;-75
2021/12/09 10:52:00;;;;;;;28.90;15.60;;;;;;;;;;5075915;28;20865;-75
2021/12/09 10:54:32;;;;;;;25.03;14.90;;;;;;;;;;5076205;28;20457;-75
2021/12/09 10:57:19;;;;;;;24.20;14.13;;;;;;;;;;5075437;28;20451;-75
2021/12/09 10:59:46;;;;;;;30.80;14.60;;;;;;;;;;5075242;28;20458;-75
2021/12/09 11:02:14;;;;;;;29.77;15.80;;;;;;;;;;5075797;28;20456;-75
2021/12/09 11:04:41;;;;;;;21.20;11.90;;;;;;;;;;5075481;28;20436;-75
2021/12/09 11:07:26;;;;;;;22.37;13.53;;;;;;;;;;5075218;28;20846;-76
2021/12/09 11:10:08;;;;;;;23.83;13.57;;;;;;;;;;5075611;28;20459;-76
2021/12/09 11:12:35;;;;;;;28.70;14.80;;;;;;;;;;5075250;28;20949;-76
2021/12/09 11:15:03;;;;;;;19.30;11.03;;;;;;;;;;5075332;28;21021;-76
2021/12/09 11:17:41;;;;;;;23.27;13.70;;;;;;;;;;5075363;28;20451;-75
2021/12/09 11:20:08;;;;;;;21.00;13.27;;;;;;;;;;5075299;28;20944;-75
2021/12/09 11:22:38;;;;;;;14.40;10.67;;;;;;;;;;5075041;28;20455;-75
2021/12/09 11:25:07;;;;;;;17.30;11.30;;;;;;;;;;5074932;28;20448;-76
2021/12/09 11:27:34;;;;;;;11.80;9.43;;;;;;;;;;5074847;28;20492;-76
2021/12/09 11:30:09;;;;;;;15.20;10.30;;;;;;;;;;5075123;28;20458;-76
2021/12/09 11:32:41;;;;;;;17.40;10.03;;;;;;;;;;5074995;28;20443;-77
2021/12/09 11:35:14;;;;;;;16.13;10.40;;;;;;;;;;5074690;28;20463;-77
2021/12/09 11:37:47;;;;;;;16.50;11.73;;;;;;;;;;5074260;28;20455;-77
2021/12/09 11:40:21;;;;;;;18.77;11.63;;;;;;;;;;5074181;28;20452;-77
2021/12/09 11:42:51;;;;;;;20.93;11.23;;;;;;;;;;5075161;28;20491;-77
2021/12/09 11:45:20;;;;;;;14.67;10.53;;;;;;;;;;5074464;28;20546;-77
2021/12/09 11:47:49;;;;;;;15.57;10.43;;;;;;;;;;5074505;28;20490;-75
2021/12/09 11:50:18;;;;;;;14.30;10.43;;;;;;;;;;5075592;28;20814;-75
2021/12/09 11:52:47;;;;;;;19.07;11.33;;;;;;;;;;5074497;28;20459;-75
2021/12/09 11:55:17;;;;;;;14.40;9.83;;;;;;;;;;5074755;28;20513;-75
2021/12/09 11:57:48;;;;;;;12.03;7.93;;;;;;;;;;5074391;28;20460;-75
2021/12/09 12:11:57;;;;;;;10.50;7.60;;;;;;;;;;5073978;28;20581;-75
2021/12/09 12:14:30;;;;;;;12.57;7.77;;;;;;;;;;5069606;28;20551;-76
2021/12/09 12:20:04;;;;;;;8.03;6.57;;;;;;;;;;5071202;28;20463;-75
2021/12/09 12:22:45;;;;;;;12.67;6.63;;;;;;;;;;5072288;28;20566;-75
2021/12/09 12:25:32;;;;;;;8.83;6.87;;;;;;;;;;5072433;28;21030;-75
2021/12/09 12:28:21;;;;;;;8.67;5.40;;;;;;;;;;5071437;28;21016;-75
2021/12/09 12:33:54;;;;;;;9.23;6.90;;;;;;;;;;5069132;28;20555;-75
2021/12/09 12:37:05;;;;;;;9.60;7.00;;;;;;;;;;5071519;28;20499;-76
2021/12/09 12:39:57;;;;;;;8.20;5.80;;;;;;;;;;5072085;28;20505;-75
2021/12/09 12:42:34;;;;;;;8.73;6.30;;;;;;;;;;5071818;28;20574;-76
2021/12/09 12:45:39;;;;;;;9.50;6.27;;;;;;;;;;5070961;28;20796;-77
2021/12/09 12:48:28;;;;;;;11.50;7.00;;;;;;;;;;5067856;28;20578;-76
2021/12/09 12:51:12;;;;;;;11.03;6.93;;;;;;;;;;5071265;28;20984;-76
2021/12/09 12:53:42;;;;;;;8.83;6.33;;;;;;;;;;5071871;28;20467;-76
2021/12/09 12:56:13;;;;;;;19.93;8.27;;;;;;;;;;5071611;28;20541;-76
2021/12/09 12:58:41;;;;;;;10.47;6.03;;;;;;;;;;5071769;28;20828;-75
2021/12/09 13:01:16;;;;;;;13.27;7.60;;;;;;;;;;5071517;28;20478;-76
2021/12/09 13:03:48;;;;;;;13.57;7.90;;;;;;;;;;5072077;28;20934;-75
2021/12/09 13:06:36;;;;;;;15.33;9.10;;;;;;;;;;5073108;28;20458;-76
2021/12/09 13:09:23;;;;;;;11.47;8.87;;;;;;;;;;5072905;28;20487;-75
2021/12/09 13:11:57;;;;;;;15.17;8.70;;;;;;;;;;5073085;28;20459;-75
2021/12/09 13:14:29;;;;;;;13.60;8.43;;;;;;;;;;5073326;28;20937;-74
2021/12/09 13:17:06;;;;;;;14.77;9.30;;;;;;;;;;5073250;28;20944;-74
2021/12/09 13:19:39;;;;;;;13.53;8.23;;;;;;;;;;5073242;28;20825;-75
2021/12/09 13:22:19;;;;;;;16.23;10.40;;;;;;;;;;5073058;28;20463;-75
2021/12/09 13:24:53;;;;;;;22.90;9.70;;;;;;;;;;5073109;28;20459;-76
2021/12/09 13:27:31;;;;;;;17.73;9.90;;;;;;;;;;5073033;28;20459;-75
2021/12/09 13:30:10;;;;;;;12.93;8.10;;;;;;;;;;5073199;28;20466;-75
2021/12/09 13:35:37;;;;;;;15.87;9.43;;;;;;;;;;5051739;28;20428;-74
2021/12/09 13:38:31;;;;;;;18.27;8.40;;;;;;;;;;5073081;28;20455;-74
2021/12/09 13:46:47;;;;;;;22.37;10.27;;;;;;;;;;5073104;28;20480;-75
2021/12/09 13:49:22;;;;;;;12.90;6.70;;;;;;;;;;5072724;28;20904;-75
2021/12/09 13:51:58;;;;;;;17.47;10.83;;;;;;;;;;5072603;28;20459;-76
2021/12/09 13:54:27;;;;;;;23.80;10.10;;;;;;;;;;5054968;28;20453;-72
2021/12/09 13:56:59;;;;;;;20.93;11.20;;;;;;;;;;5054458;28;20483;-72
2021/12/09 13:59:28;;;;;;;15.60;9.37;;;;;;;;;;5055788;28;20440;-73
2021/12/09 14:01:56;;;;;;;19.03;10.90;;;;;;;;;;5056014;28;20448;-72
2021/12/09 14:04:27;;;;;;;26.30;11.03;;;;;;;;;;5058819;28;20810;-74
2021/12/09 14:07:00;;;;;;;13.50;8.80;;;;;;;;;;5056284;28;20618;-74
2021/12/09 14:09:29;;;;;;;17.53;10.83;;;;;;;;;;5057020;28;20973;-75
2021/12/09 14:11:56;;;;;;;26.03;11.97;;;;;;;;;;5057703;28;20461;-76
2021/12/09 14:14:28;;;;;;;21.67;11.20;;;;;;;;;;5056935;28;20461;-76
2021/12/09 14:16:58;;;;;;;22.80;12.07;;;;;;;;;;5056489;28;20941;-76
2021/12/09 14:22:14;;;;;;;13.30;9.97;;;;;;;;;;5057086;28;20408;-72
2021/12/09 14:24:43;;;;;;;16.23;9.53;;;;;;;;;;5058685;28;20453;-72
2021/12/09 14:27:12;;;;;;;19.40;10.23;;;;;;;;;;5056331;28;20567;-76
2021/12/09 14:29:40;;;;;;;26.60;13.43;;;;;;;;;;5056587;28;20606;-76
2021/12/09 14:32:11;;;;;;;57.07;28.00;;;;;;;;;;5056123;28;20836;-76
2021/12/09 14:34:41;;;;;;;48.67;24.53;;;;;;;;;;5056204;28;20474;-76
2021/12/09 14:37:09;;;;;;;24.20;13.77;;;;;;;;;;5057763;28;20457;-73
2021/12/09 14:39:36;;;;;;;23.50;11.70;;;;;;;;;;5056509;28;20452;-73
2021/12/09 14:42:06;;;;;;;17.73;9.90;;;;;;;;;;5055900;28;20459;-72
2021/12/09 14:44:33;;;;;;;16.00;9.93;;;;;;;;;;5055907;28;20816;-73
2021/12/09 14:47:07;;;;;;;17.97;11.63;;;;;;;;;;5055876;28;20453;-75
2021/12/09 14:49:42;;;;;;;29.90;14.67;;;;;;;;;;5055909;28;20480;-74
2021/12/09 14:52:10;;;;;;;21.13;12.17;;;;;;;;;;5055893;28;20463;-75
2021/12/09 14:54:37;;;;;;;23.90;13.33;;;;;;;;;;5055620;28;21032;-74
2021/12/09 14:57:06;;;;;;;23.30;13.10;;;;;;;;;;5055415;28;20464;-74
2021/12/09 14:59:35;;;;;;;20.27;13.37;;;;;;;;;;5055292;28;20507;-74
2021/12/09 15:02:09;;;;;;;21.07;11.17;;;;;;;;;;5055438;28;20472;-75
2021/12/09 15:04:41;;;;;;;16.70;10.10;;;;;;;;;;5055818;28;20448;-75